sensor_id;sensor_type;location;lat;lon;timestamp;pressure;altitude;pressure_sealevel;temperature;humidity
55217;BME280;41086;46.736;15.666;2023-09-18T00:00:05;98592.84;;;19.30;100.00
55217;BME280;41086;46.736;15.666;2023-09-18T00:02:35;98596.91;;;19.08;100.00
55217;BME280;41086;46.736;15.666;2023-09-18T00:05:02;98599.78;;;18.70;100.00
55217;BME280;41086;46.736;15.666;2023-09-18T00:07:29;98609.28;;;18.82;100.00
55217;BME280;41086;46.736;15.666;2023-09-18T00:09:56;98603.41;;;18.79;100.00
55217;BME280;41086;46.736;15.666;2023-09-18T00:12:23;98596.16;;;18.61;100.00
55217;BME280;41086;46.736;15.666;2023-09-18T00:14:49;98586.41;;;18.60;100.00
55217;BME280;41086;46.736;15.666;2023-09-18T00:17:16;98587.34;;;18.87;100.00
55217;BME280;41086;46.736;15.666;2023-09-18T00:19:43;98589.63;;;18.64;100.00
55217;BME280;41086;46.736;15.666;2023-09-18T00:22:10;98591.47;;;18.64;100.00
55217;BME280;41086;46.736;15.666;2023-09-18T00:24:37;98588.88;;;18.90;100.00
55217;BME280;41086;46.736;15.666;2023-09-18T00:27:04;98584.56;;;18.97;100.00
55217;BME280;41086;46.736;15.666;2023-09-18T00:29:30;98589.03;;;18.88;100.00
55217;BME280;41086;46.736;15.666;2023-09-18T00:31:57;98581.81;;;18.71;100.00
55217;BME280;41086;46.736;15.666;2023-09-18T00:34:24;98578.97;;;18.72;100.00
55217;BME280;41086;46.736;15.666;2023-09-18T00:36:51;98576.31;;;18.90;100.00
55217;BME280;41086;46.736;15.666;2023-09-18T00:39:19;98585.50;;;19.06;100.00
55217;BME280;41086;46.736;15.666;2023-09-18T00:41:46;98582.81;;;18.88;100.00
55217;BME280;41086;46.736;15.666;2023-09-18T00:44:16;98587.94;;;18.63;100.00
55217;BME280;41086;46.736;15.666;2023-09-18T00:46:43;98583.09;;;18.67;100.00
55217;BME280;41086;46.736;15.666;2023-09-18T00:49:10;98581.44;;;18.66;100.00
55217;BME280;41086;46.736;15.666;2023-09-18T00:51:38;98581.72;;;18.45;100.00
55217;BME280;41086;46.736;15.666;2023-09-18T00:54:06;98584.56;;;18.61;100.00
55217;BME280;41086;46.736;15.666;2023-09-18T00:56:33;98589.69;;;18.72;100.00
55217;BME280;41086;46.736;15.666;2023-09-18T00:59:01;98584.09;;;19.01;100.00
55217;BME280;41086;46.736;15.666;2023-09-18T01:01:31;98570.91;;;19.08;100.00
55217;BME280;41086;46.736;15.666;2023-09-18T01:03:59;98571.69;;;19.00;100.00
55217;BME280;41086;46.736;15.666;2023-09-18T01:06:26;98570.72;;;19.10;100.00
55217;BME280;41086;46.736;15.666;2023-09-18T01:08:57;98559.03;;;18.93;100.00
55217;BME280;41086;46.736;15.666;2023-09-18T01:14:16;98547.03;;;18.79;100.00
55217;BME280;41086;46.736;15.666;2023-09-18T01:16:51;98545.09;;;18.89;100.00
55217;BME280;41086;46.736;15.666;2023-09-18T01:22:05;98542.34;;;18.81;100.00
55217;BME280;41086;46.736;15.666;2023-09-18T01:24:34;98551.56;;;18.78;100.00
55217;BME280;41086;46.736;15.666;2023-09-18T01:27:02;98549.53;;;18.80;100.00
55217;BME280;41086;46.736;15.666;2023-09-18T01:29:32;98546.19;;;18.78;100.00
55217;BME280;41086;46.736;15.666;2023-09-18T01:31:59;98549.38;;;18.82;100.00
55217;BME280;41086;46.736;15.666;2023-09-18T01:34:30;98545.63;;;18.75;100.00
55217;BME280;41086;46.736;15.666;2023-09-18T01:37:00;98547.41;;;18.84;100.00
55217;BME280;41086;46.736;15.666;2023-09-18T01:39:28;98544.34;;;18.79;100.00
55217;BME280;41086;46.736;15.666;2023-09-18T01:41:59;98540.34;;;18.47;100.00
55217;BME280;41086;46.736;15.666;2023-09-18T01:44:28;98547.31;;;18.40;100.00
55217;BME280;41086;46.736;15.666;2023-09-18T01:47:01;98529.97;;;18.34;100.00
55217;BME280;41086;46.736;15.666;2023-09-18T01:49:29;98524.84;;;18.41;100.00
55217;BME280;41086;46.736;15.666;2023-09-18T01:51:56;98521.47;;;18.57;100.00
55217;BME280;41086;46.736;15.666;2023-09-18T01:54:23;98520.00;;;18.63;100.00
55217;BME280;41086;46.736;15.666;2023-09-18T01:56:51;98513.94;;;18.60;100.00
55217;BME280;41086;46.736;15.666;2023-09-18T01:59:20;98514.41;;;18.56;100.00
55217;BME280;41086;46.736;15.666;2023-09-18T02:01:48;98509.53;;;18.51;100.00
55217;BME280;41086;46.736;15.666;2023-09-18T02:04:16;98509.28;;;18.45;100.00
55217;BME280;41086;46.736;15.666;2023-09-18T02:07:05;98509.75;;;18.40;100.00
55217;BME280;41086;46.736;15.666;2023-09-18T02:09:32;98510.81;;;18.47;100.00
55217;BME280;41086;46.736;15.666;2023-09-18T02:11:59;98505.13;;;18.50;100.00
55217;BME280;41086;46.736;15.666;2023-09-18T02:14:26;98497.91;;;18.51;100.00
55217;BME280;41086;46.736;15.666;2023-09-18T02:16:53;98507.13;;;18.48;100.00
55217;BME280;41086;46.736;15.666;2023-09-18T02:19:20;98497.56;;;18.46;100.00
55217;BME280;41086;46.736;15.666;2023-09-18T02:21:47;98495.03;;;18.44;100.00
55217;BME280;41086;46.736;15.666;2023-09-18T02:24:14;98493.56;;;18.50;100.00
55217;BME280;41086;46.736;15.666;2023-09-18T02:26:40;98483.16;;;18.47;100.00
55217;BME280;41086;46.736;15.666;2023-09-18T02:29:08;98489.97;;;18.41;100.00
55217;BME280;41086;46.736;15.666;2023-09-18T02:31:40;98494.81;;;18.37;100.00
55217;BME280;41086;46.736;15.666;2023-09-18T02:34:09;98504.47;;;18.30;100.00
55217;BME280;41086;46.736;15.666;2023-09-18T02:36:37;98502.00;;;18.37;100.00
55217;BME280;41086;46.736;15.666;2023-09-18T02:39:04;98493.56;;;18.50;100.00
55217;BME280;41086;46.736;15.666;2023-09-18T02:41:31;98503.84;;;18.54;100.00
55217;BME280;41086;46.736;15.666;2023-09-18T02:43:58;98502.13;;;18.53;100.00
55217;BME280;41086;46.736;15.666;2023-09-18T02:46:25;98502.38;;;18.42;100.00
55217;BME280;41086;46.736;15.666;2023-09-18T02:48:52;98504.16;;;18.15;100.00
55217;BME280;41086;46.736;15.666;2023-09-18T02:51:18;98501.78;;;17.94;100.00
55217;BME280;41086;46.736;15.666;2023-09-18T02:53:45;98493.38;;;17.80;100.00
55217;BME280;41086;46.736;15.666;2023-09-18T02:56:12;98494.50;;;17.77;100.00
55217;BME280;41086;46.736;15.666;2023-09-18T02:58:40;98494.28;;;17.43;100.00
55217;BME280;41086;46.736;15.666;2023-09-18T03:01:07;98494.22;;;17.15;100.00
55217;BME280;41086;46.736;15.666;2023-09-18T03:03:34;98497.31;;;17.20;100.00
55217;BME280;41086;46.736;15.666;2023-09-18T03:06:05;98491.72;;;17.51;100.00
55217;BME280;41086;46.736;15.666;2023-09-18T03:08:33;98481.56;;;17.72;100.00
55217;BME280;41086;46.736;15.666;2023-09-18T03:11:02;98480.16;;;17.96;100.00
55217;BME280;41086;46.736;15.666;2023-09-18T03:13:30;98480.81;;;18.08;100.00
55217;BME280;41086;46.736;15.666;2023-09-18T03:15:57;98484.53;;;18.15;100.00
55217;BME280;41086;46.736;15.666;2023-09-18T03:18:26;98495.91;;;18.27;100.00
55217;BME280;41086;46.736;15.666;2023-09-18T03:20:56;98500.69;;;18.23;100.00
55217;BME280;41086;46.736;15.666;2023-09-18T03:23:23;98488.00;;;18.25;100.00
55217;BME280;41086;46.736;15.666;2023-09-18T03:25:50;98489.28;;;18.39;100.00
55217;BME280;41086;46.736;15.666;2023-09-18T03:28:19;98482.31;;;18.46;100.00
55217;BME280;41086;46.736;15.666;2023-09-18T03:30:49;98484.75;;;18.39;100.00
55217;BME280;41086;46.736;15.666;2023-09-18T03:33:19;98472.56;;;18.45;100.00
55217;BME280;41086;46.736;15.666;2023-09-18T03:35:50;98465.84;;;18.41;100.00
55217;BME280;41086;46.736;15.666;2023-09-18T03:38:21;98466.16;;;18.38;100.00
55217;BME280;41086;46.736;15.666;2023-09-18T03:40:49;98459.06;;;18.37;100.00
55217;BME280;41086;46.736;15.666;2023-09-18T03:43:16;98456.63;;;18.44;100.00
55217;BME280;41086;46.736;15.666;2023-09-18T03:45:44;98460.53;;;18.49;100.00
55217;BME280;41086;46.736;15.666;2023-09-18T03:48:11;98465.97;;;18.39;100.00
55217;BME280;41086;46.736;15.666;2023-09-18T03:50:40;98465.59;;;18.52;100.00
55217;BME280;41086;46.736;15.666;2023-09-18T03:53:08;98457.16;;;18.47;100.00
55217;BME280;41086;46.736;15.666;2023-09-18T03:55:35;98448.19;;;18.38;100.00
55217;BME280;41086;46.736;15.666;2023-09-18T03:58:02;98446.34;;;18.39;100.00
55217;BME280;41086;46.736;15.666;2023-09-18T04:00:30;98449.56;;;18.43;100.00
55217;BME280;41086;46.736;15.666;2023-09-18T04:02:57;98444.25;;;18.51;100.00
55217;BME280;41086;46.736;15.666;2023-09-18T04:05:26;98438.06;;;18.50;100.00
55217;BME280;41086;46.736;15.666;2023-09-18T04:07:58;98429.47;;;18.47;100.00
55217;BME280;41086;46.736;15.666;2023-09-18T04:10:26;98429.31;;;18.48;100.00
55217;BME280;41086;46.736;15.666;2023-09-18T04:12:52;98429.03;;;18.51;100.00
55217;BME280;41086;46.736;15.666;2023-09-18T04:15:20;98429.22;;;18.58;100.00
55217;BME280;41086;46.736;15.666;2023-09-18T04:17:47;98452.09;;;18.44;100.00
55217;BME280;41086;46.736;15.666;2023-09-18T04:20:15;98441.88;;;18.48;100.00
55217;BME280;41086;46.736;15.666;2023-09-18T04:22:45;98440.34;;;18.45;100.00
55217;BME280;41086;46.736;15.666;2023-09-18T04:25:16;98440.59;;;18.34;100.00
55217;BME280;41086;46.736;15.666;2023-09-18T04:27:46;98435.47;;;18.41;100.00
55217;BME280;41086;46.736;15.666;2023-09-18T04:30:13;98422.72;;;18.43;100.00
55217;BME280;41086;46.736;15.666;2023-09-18T04:32:41;98437.16;;;18.42;100.00
55217;BME280;41086;46.736;15.666;2023-09-18T04:35:08;98440.25;;;18.11;100.00
55217;BME280;41086;46.736;15.666;2023-09-18T04:37:37;98447.84;;;17.98;100.00
55217;BME280;41086;46.736;15.666;2023-09-18T04:40:07;98439.84;;;18.24;100.00
55217;BME280;41086;46.736;15.666;2023-09-18T04:42:39;98447.13;;;18.49;100.00
55217;BME280;41086;46.736;15.666;2023-09-18T04:45:07;98440.47;;;18.61;100.00
55217;BME280;41086;46.736;15.666;2023-09-18T04:47:35;98427.28;;;18.68;100.00
55217;BME280;41086;46.736;15.666;2023-09-18T04:50:02;98419.47;;;18.75;100.00
55217;BME280;41086;46.736;15.666;2023-09-18T04:52:36;98412.13;;;18.85;100.00
55217;BME280;41086;46.736;15.666;2023-09-18T04:55:04;98404.28;;;18.92;100.00
55217;BME280;41086;46.736;15.666;2023-09-18T04:57:33;98399.78;;;18.92;100.00
55217;BME280;41086;46.736;15.666;2023-09-18T05:00:01;98393.72;;;18.90;100.00
55217;BME280;41086;46.736;15.666;2023-09-18T05:02:43;98405.28;;;18.91;100.00
55217;BME280;41086;46.736;15.666;2023-09-18T05:05:11;98401.28;;;18.95;100.00
55217;BME280;41086;46.736;15.666;2023-09-18T05:07:38;98409.88;;;18.98;100.00
55217;BME280;41086;46.736;15.666;2023-09-18T05:10:05;98419.56;;;18.91;100.00
55217;BME280;41086;46.736;15.666;2023-09-18T05:12:32;98421.81;;;19.04;100.00
55217;BME280;41086;46.736;15.666;2023-09-18T05:14:59;98408.75;;;19.09;100.00
55217;BME280;41086;46.736;15.666;2023-09-18T05:17:47;98411.59;;;19.16;100.00
55217;BME280;41086;46.736;15.666;2023-09-18T05:20:16;98411.00;;;19.22;100.00
55217;BME280;41086;46.736;15.666;2023-09-18T05:22:44;98423.56;;;19.21;100.00
55217;BME280;41086;46.736;15.666;2023-09-18T05:25:12;98425.75;;;19.26;100.00
55217;BME280;41086;46.736;15.666;2023-09-18T05:27:42;98421.88;;;19.20;100.00
55217;BME280;41086;46.736;15.666;2023-09-18T05:30:17;98425.75;;;19.26;100.00
55217;BME280;41086;46.736;15.666;2023-09-18T05:32:47;98422.69;;;19.13;100.00
55217;BME280;41086;46.736;15.666;2023-09-18T05:35:15;98424.53;;;19.12;100.00
55217;BME280;41086;46.736;15.666;2023-09-18T05:37:43;98421.88;;;19.20;100.00
55217;BME280;41086;46.736;15.666;2023-09-18T05:40:11;98427.78;;;19.32;100.00
55217;BME280;41086;46.736;15.666;2023-09-18T05:42:41;98425.81;;;19.42;100.00
55217;BME280;41086;46.736;15.666;2023-09-18T05:45:12;98423.59;;;19.30;100.00
55217;BME280;41086;46.736;15.666;2023-09-18T05:47:39;98412.00;;;19.29;100.00
55217;BME280;41086;46.736;15.666;2023-09-18T05:50:07;98419.09;;;19.38;100.00
55217;BME280;41086;46.736;15.666;2023-09-18T05:52:34;98412.88;;;19.46;100.00
55217;BME280;41086;46.736;15.666;2023-09-18T05:55:02;98407.06;;;19.59;100.00
55217;BME280;41086;46.736;15.666;2023-09-18T05:57:31;98410.47;;;19.69;100.00
55217;BME280;41086;46.736;15.666;2023-09-18T05:59:58;98403.19;;;19.61;100.00
55217;BME280;41086;46.736;15.666;2023-09-18T06:02:24;98400.41;;;19.71;100.00
55217;BME280;41086;46.736;15.666;2023-09-18T06:04:55;98406.88;;;19.52;100.00
55217;BME280;41086;46.736;15.666;2023-09-18T06:07:24;98404.63;;;19.31;100.00
55217;BME280;41086;46.736;15.666;2023-09-18T06:09:52;98396.19;;;19.18;100.00
55217;BME280;41086;46.736;15.666;2023-09-18T06:12:19;98406.50;;;19.39;100.00
55217;BME280;41086;46.736;15.666;2023-09-18T06:14:48;98413.41;;;19.41;100.00
55217;BME280;41086;46.736;15.666;2023-09-18T06:17:15;98413.31;;;19.67;100.00
55217;BME280;41086;46.736;15.666;2023-09-18T06:19:43;98417.72;;;19.77;100.00
55217;BME280;41086;46.736;15.666;2023-09-18T06:22:10;98428.53;;;20.01;100.00
55217;BME280;41086;46.736;15.666;2023-09-18T06:24:36;98417.91;;;20.00;100.00
55217;BME280;41086;46.736;15.666;2023-09-18T06:27:03;98406.66;;;20.12;100.00
55217;BME280;41086;46.736;15.666;2023-09-18T06:29:33;98402.13;;;20.29;100.00
55217;BME280;41086;46.736;15.666;2023-09-18T06:32:01;98399.91;;;20.25;100.00
55217;BME280;41086;46.736;15.666;2023-09-18T06:34:28;98400.25;;;19.97;100.00
55217;BME280;41086;46.736;15.666;2023-09-18T06:36:57;98397.41;;;19.82;100.00
55217;BME280;41086;46.736;15.666;2023-09-18T06:39:24;98398.25;;;20.15;100.00
55217;BME280;41086;46.736;15.666;2023-09-18T06:41:52;98410.38;;;20.36;100.00
55217;BME280;41086;46.736;15.666;2023-09-18T06:44:19;98401.28;;;20.45;100.00
55217;BME280;41086;46.736;15.666;2023-09-18T06:46:46;98394.03;;;20.46;100.00
55217;BME280;41086;46.736;15.666;2023-09-18T06:49:13;98398.09;;;20.42;100.00
55217;BME280;41086;46.736;15.666;2023-09-18T06:51:39;98400.44;;;20.69;100.00
55217;BME280;41086;46.736;15.666;2023-09-18T06:54:09;98399.75;;;20.67;100.00
55217;BME280;41086;46.736;15.666;2023-09-18T06:56:36;98395.19;;;20.68;100.00
55217;BME280;41086;46.736;15.666;2023-09-18T06:59:02;98392.34;;;20.45;100.00
55217;BME280;41086;46.736;15.666;2023-09-18T07:01:29;98391.84;;;20.66;100.00
55217;BME280;41086;46.736;15.666;2023-09-18T07:03:58;98390.13;;;20.81;100.00
55217;BME280;41086;46.736;15.666;2023-09-18T07:06:26;98388.00;;;21.08;100.00
55217;BME280;41086;46.736;15.666;2023-09-18T07:08:53;98392.75;;;20.97;100.00
55217;BME280;41086;46.736;15.666;2023-09-18T07:11:21;98382.47;;;21.09;100.00
55217;BME280;41086;46.736;15.666;2023-09-18T07:13:51;98386.28;;;21.23;100.00
55217;BME280;41086;46.736;15.666;2023-09-18T07:16:17;98390.47;;;21.25;100.00
55217;BME280;41086;46.736;15.666;2023-09-18T07:18:45;98383.91;;;21.28;100.00
55217;BME280;41086;46.736;15.666;2023-09-18T07:21:11;98390.25;;;21.35;100.00
55217;BME280;41086;46.736;15.666;2023-09-18T07:23:40;98400.66;;;21.46;100.00
55217;BME280;41086;46.736;15.666;2023-09-18T07:26:07;98415.06;;;21.31;100.00
55217;BME280;41086;46.736;15.666;2023-09-18T07:28:34;98422.50;;;21.20;100.00
55217;BME280;41086;46.736;15.666;2023-09-18T07:31:07;98413.38;;;20.74;100.00
55217;BME280;41086;46.736;15.666;2023-09-18T07:33:35;98412.63;;;21.05;100.00
55217;BME280;41086;46.736;15.666;2023-09-18T07:36:02;98409.06;;;21.12;100.00
55217;BME280;41086;46.736;15.666;2023-09-18T07:38:29;98417.19;;;20.96;100.00
55217;BME280;41086;46.736;15.666;2023-09-18T07:40:58;98410.25;;;21.10;100.00
55217;BME280;41086;46.736;15.666;2023-09-18T07:43:25;98415.06;;;21.22;100.00
55217;BME280;41086;46.736;15.666;2023-09-18T07:45:52;98421.50;;;21.13;100.00
55217;BME280;41086;46.736;15.666;2023-09-18T07:48:19;98426.19;;;21.19;100.00
55217;BME280;41086;46.736;15.666;2023-09-18T07:50:47;98438.59;;;21.45;100.00
55217;BME280;41086;46.736;15.666;2023-09-18T07:53:16;98421.19;;;21.56;100.00
55217;BME280;41086;46.736;15.666;2023-09-18T07:55:43;98413.47;;;21.53;100.00
55217;BME280;41086;46.736;15.666;2023-09-18T07:58:10;98416.13;;;21.84;100.00
55217;BME280;41086;46.736;15.666;2023-09-18T08:00:38;98403.47;;;21.84;100.00
55217;BME280;41086;46.736;15.666;2023-09-18T08:03:06;98405.28;;;22.15;100.00
55217;BME280;41086;46.736;15.666;2023-09-18T08:05:32;98411.94;;;22.04;99.34
55217;BME280;41086;46.736;15.666;2023-09-18T08:07:59;98417.25;;;21.89;100.00
55217;BME280;41086;46.736;15.666;2023-09-18T08:10:27;98427.53;;;21.94;100.00
55217;BME280;41086;46.736;15.666;2023-09-18T08:12:54;98432.50;;;22.05;100.00
55217;BME280;41086;46.736;15.666;2023-09-18T08:15:20;98438.31;;;22.17;100.00
55217;BME280;41086;46.736;15.666;2023-09-18T08:17:48;98438.22;;;22.33;99.84
55217;BME280;41086;46.736;15.666;2023-09-18T08:20:16;98426.22;;;22.13;97.61
55217;BME280;41086;46.736;15.666;2023-09-18T08:22:43;98426.78;;;22.31;98.75
55217;BME280;41086;46.736;15.666;2023-09-18T08:25:11;98413.59;;;22.37;97.40
55217;BME280;41086;46.736;15.666;2023-09-18T08:27:40;98416.88;;;22.24;99.60
55217;BME280;41086;46.736;15.666;2023-09-18T08:30:13;98405.59;;;22.43;98.27
55217;BME280;41086;46.736;15.666;2023-09-18T08:32:41;98404.97;;;22.56;96.60
55217;BME280;41086;46.736;15.666;2023-09-18T08:35:09;98407.66;;;22.18;98.45
55217;BME280;41086;46.736;15.666;2023-09-18T08:37:36;98410.03;;;22.36;100.00
55217;BME280;41086;46.736;15.666;2023-09-18T08:40:03;98409.72;;;22.69;98.57
55217;BME280;41086;46.736;15.666;2023-09-18T08:42:40;98398.69;;;22.41;97.37
55217;BME280;41086;46.736;15.666;2023-09-18T08:45:09;98397.31;;;22.60;97.95
55217;BME280;41086;46.736;15.666;2023-09-18T08:47:38;98401.94;;;23.04;97.80
55217;BME280;41086;46.736;15.666;2023-09-18T08:50:08;98384.78;;;23.11;92.24
55217;BME280;41086;46.736;15.666;2023-09-18T08:52:35;98390.88;;;23.64;93.20
55217;BME280;41086;46.736;15.666;2023-09-18T08:55:04;98384.66;;;24.07;90.37
55217;BME280;41086;46.736;15.666;2023-09-18T08:57:34;98380.94;;;24.58;89.30
55217;BME280;41086;46.736;15.666;2023-09-18T09:00:02;98383.84;;;24.84;86.04
55217;BME280;41086;46.736;15.666;2023-09-18T09:02:34;98384.53;;;25.28;84.47
55217;BME280;41086;46.736;15.666;2023-09-18T09:05:01;98368.72;;;25.45;81.20
55217;BME280;41086;46.736;15.666;2023-09-18T09:07:28;98358.88;;;25.98;79.43
55217;BME280;41086;46.736;15.666;2023-09-18T09:09:58;98353.84;;;26.35;77.99
55217;BME280;41086;46.736;15.666;2023-09-18T09:12:47;98358.84;;;26.78;74.56
55217;BME280;41086;46.736;15.666;2023-09-18T09:15:15;98346.91;;;26.92;73.41
55217;BME280;41086;46.736;15.666;2023-09-18T09:17:43;98352.44;;;27.37;72.21
55217;BME280;41086;46.736;15.666;2023-09-18T09:20:14;98343.06;;;27.65;70.30
55217;BME280;41086;46.736;15.666;2023-09-18T09:22:41;98341.84;;;27.99;69.35
55217;BME280;41086;46.736;15.666;2023-09-18T09:25:35;98334.22;;;28.33;67.25
55217;BME280;41086;46.736;15.666;2023-09-18T09:28:04;98336.56;;;28.29;65.80
55217;BME280;41086;46.736;15.666;2023-09-18T09:30:34;98328.78;;;28.58;64.94
55217;BME280;41086;46.736;15.666;2023-09-18T09:33:03;98318.56;;;28.90;61.78
55217;BME280;41086;46.736;15.666;2023-09-18T09:35:33;98320.31;;;29.03;62.87
55217;BME280;41086;46.736;15.666;2023-09-18T09:40:39;98317.25;;;29.18;59.97
55217;BME280;41086;46.736;15.666;2023-09-18T09:43:08;98312.13;;;29.03;59.84
55217;BME280;41086;46.736;15.666;2023-09-18T09:45:36;98319.59;;;28.27;63.87
55217;BME280;41086;46.736;15.666;2023-09-18T09:48:04;98310.94;;;28.81;63.00
55217;BME280;41086;46.736;15.666;2023-09-18T09:50:44;98302.38;;;28.59;60.25
55217;BME280;41086;46.736;15.666;2023-09-18T09:53:15;98311.00;;;29.29;61.23
55217;BME280;41086;46.736;15.666;2023-09-18T09:55:42;98312.19;;;29.82;58.75
55217;BME280;41086;46.736;15.666;2023-09-18T09:58:10;98312.94;;;30.01;57.62
55217;BME280;41086;46.736;15.666;2023-09-18T10:00:46;98298.63;;;30.41;56.14
55217;BME280;41086;46.736;15.666;2023-09-18T10:03:18;98290.13;;;30.78;55.14
55217;BME280;41086;46.736;15.666;2023-09-18T10:05:47;98294.47;;;30.62;53.32
55217;BME280;41086;46.736;15.666;2023-09-18T10:08:23;98289.97;;;31.20;53.28
55217;BME280;41086;46.736;15.666;2023-09-18T10:10:54;98290.31;;;31.23;52.30
55217;BME280;41086;46.736;15.666;2023-09-18T10:15:58;98280.91;;;30.55;54.27
55217;BME280;41086;46.736;15.666;2023-09-18T10:18:38;98275.66;;;30.65;54.52
55217;BME280;41086;46.736;15.666;2023-09-18T10:21:17;98277.00;;;30.39;53.84
55217;BME280;41086;46.736;15.666;2023-09-18T10:26:57;98273.31;;;29.68;54.64
55217;BME280;41086;46.736;15.666;2023-09-18T10:29:30;98272.06;;;30.06;56.23
55217;BME280;41086;46.736;15.666;2023-09-18T10:31:57;98273.72;;;30.78;54.95
55217;BME280;41086;46.736;15.666;2023-09-18T10:34:25;98278.88;;;31.38;52.04
55217;BME280;41086;46.736;15.666;2023-09-18T10:36:54;98272.00;;;32.15;49.04
55217;BME280;41086;46.736;15.666;2023-09-18T10:39:25;98265.31;;;32.61;47.23
55217;BME280;41086;46.736;15.666;2023-09-18T10:41:55;98262.66;;;32.88;46.88
55217;BME280;41086;46.736;15.666;2023-09-18T10:44:24;98256.97;;;32.73;46.63
55217;BME280;41086;46.736;15.666;2023-09-18T10:46:52;98244.56;;;32.32;48.40
55217;BME280;41086;46.736;15.666;2023-09-18T10:49:20;98237.63;;;32.46;48.54
55217;BME280;41086;46.736;15.666;2023-09-18T10:51:53;98235.78;;;32.91;46.62
55217;BME280;41086;46.736;15.666;2023-09-18T10:54:24;98231.03;;;33.30;45.59
55217;BME280;41086;46.736;15.666;2023-09-18T10:56:52;98232.03;;;33.46;44.21
55217;BME280;41086;46.736;15.666;2023-09-18T10:59:20;98220.84;;;33.03;45.34
55217;BME280;41086;46.736;15.666;2023-09-18T11:01:50;98215.13;;;33.32;45.71
55217;BME280;41086;46.736;15.666;2023-09-18T11:04:20;98218.72;;;33.60;44.05
55217;BME280;41086;46.736;15.666;2023-09-18T11:09:26;98218.00;;;33.15;44.82
55217;BME280;41086;46.736;15.666;2023-09-18T11:14:49;98203.13;;;31.77;47.50
55217;BME280;41086;46.736;15.666;2023-09-18T11:17:36;98194.56;;;32.24;44.69
55217;BME280;41086;46.736;15.666;2023-09-18T11:20:17;98198.75;;;32.10;45.36
55217;BME280;41086;46.736;15.666;2023-09-18T11:28:13;98205.00;;;32.44;44.94
55217;BME280;41086;46.736;15.666;2023-09-18T11:30:52;98200.06;;;32.85;43.88
55217;BME280;41086;46.736;15.666;2023-09-18T11:33:40;98196.28;;;32.70;42.96
55217;BME280;41086;46.736;15.666;2023-09-18T11:36:12;98197.47;;;33.50;42.85
55217;BME280;41086;46.736;15.666;2023-09-18T11:38:54;98200.63;;;34.01;40.63
55217;BME280;41086;46.736;15.666;2023-09-18T11:41:27;98190.06;;;34.20;40.33
55217;BME280;41086;46.736;15.666;2023-09-18T11:46:47;98173.63;;;34.30;41.30
55217;BME280;41086;46.736;15.666;2023-09-18T11:49:24;98171.19;;;34.92;39.68
55217;BME280;41086;46.736;15.666;2023-09-18T11:51:54;98179.81;;;34.53;40.46
55217;BME280;41086;46.736;15.666;2023-09-18T11:54:27;98152.91;;;34.65;40.51
55217;BME280;41086;46.736;15.666;2023-09-18T11:56:54;98157.44;;;34.39;41.03
55217;BME280;41086;46.736;15.666;2023-09-18T11:59:38;98147.28;;;33.97;41.88
55217;BME280;41086;46.736;15.666;2023-09-18T12:02:10;98147.03;;;33.61;42.45
55217;BME280;41086;46.736;15.666;2023-09-18T12:04:38;98148.41;;;33.31;43.53
55217;BME280;41086;46.736;15.666;2023-09-18T12:07:06;98148.66;;;33.30;43.39
55217;BME280;41086;46.736;15.666;2023-09-18T12:09:33;98148.13;;;33.01;45.12
55217;BME280;41086;46.736;15.666;2023-09-18T12:12:00;98158.34;;;32.61;45.16
55217;BME280;41086;46.736;15.666;2023-09-18T12:14:33;98155.31;;;32.02;46.10
55217;BME280;41086;46.736;15.666;2023-09-18T12:17:01;98148.25;;;31.72;46.99
55217;BME280;41086;46.736;15.666;2023-09-18T12:19:30;98138.72;;;31.75;47.81
55217;BME280;41086;46.736;15.666;2023-09-18T12:21:57;98131.16;;;30.45;51.22
55217;BME280;41086;46.736;15.666;2023-09-18T12:24:25;98132.97;;;30.16;52.08
55217;BME280;41086;46.736;15.666;2023-09-18T12:26:53;98129.44;;;30.56;51.69
55217;BME280;41086;46.736;15.666;2023-09-18T12:29:21;98129.41;;;30.68;51.20
55217;BME280;41086;46.736;15.666;2023-09-18T12:31:48;98123.56;;;30.76;51.04
55217;BME280;41086;46.736;15.666;2023-09-18T12:34:18;98116.84;;;30.96;50.37
55217;BME280;41086;46.736;15.666;2023-09-18T12:36:46;98115.25;;;31.00;50.62
55217;BME280;41086;46.736;15.666;2023-09-18T12:39:14;98103.47;;;30.70;50.42
55217;BME280;41086;46.736;15.666;2023-09-18T12:41:48;98103.31;;;30.89;50.28
55217;BME280;41086;46.736;15.666;2023-09-18T12:44:15;98101.31;;;30.84;50.59
55217;BME280;41086;46.736;15.666;2023-09-18T12:46:44;98091.72;;;30.70;51.11
55217;BME280;41086;46.736;15.666;2023-09-18T12:49:30;98086.00;;;30.72;50.89
55217;BME280;41086;46.736;15.666;2023-09-18T12:51:59;98079.94;;;30.98;51.39
55217;BME280;41086;46.736;15.666;2023-09-18T12:54:42;98085.75;;;31.02;49.67
55217;BME280;41086;46.736;15.666;2023-09-18T12:57:10;98086.25;;;30.99;49.67
55217;BME280;41086;46.736;15.666;2023-09-18T12:59:37;98081.44;;;30.77;50.74
55217;BME280;41086;46.736;15.666;2023-09-18T13:02:05;98081.84;;;30.69;51.12
55217;BME280;41086;46.736;15.666;2023-09-18T13:04:36;98085.41;;;30.69;51.75
55217;BME280;41086;46.736;15.666;2023-09-18T13:07:14;98069.00;;;30.69;51.08
55217;BME280;41086;46.736;15.666;2023-09-18T13:09:41;98061.72;;;30.75;51.40
55217;BME280;41086;46.736;15.666;2023-09-18T13:12:09;98067.72;;;30.60;51.73
55217;BME280;41086;46.736;15.666;2023-09-18T13:14:59;98071.41;;;30.66;52.23
55217;BME280;41086;46.736;15.666;2023-09-18T13:17:27;98063.88;;;30.73;52.59
55217;BME280;41086;46.736;15.666;2023-09-18T13:19:53;98058.16;;;30.75;52.99